sensor_id;sensor_type;location;lat;lon;timestamp;pressure;altitude;pressure_sealevel;temperature;humidity
12913;BME280;6524;51.368;11.984;2023-02-16T00:03:44;101171.41;;;12.25;49.77
12913;BME280;6524;51.368;11.984;2023-02-16T00:08:48;101166.72;;;11.69;51.54
12913;BME280;6524;51.368;11.984;2023-02-16T00:13:49;101159.63;;;11.37;52.46
12913;BME280;6524;51.368;11.984;2023-02-16T00:18:52;101160.38;;;11.79;50.68
12913;BME280;6524;51.368;11.984;2023-02-16T00:23:52;101167.59;;;12.38;49.66
12913;BME280;6524;51.368;11.984;2023-02-16T00:28:55;101162.97;;;11.79;50.93
12913;BME280;6524;51.368;11.984;2023-02-16T00:34:12;101169.22;;;11.37;51.23
12913;BME280;6524;51.368;11.984;2023-02-16T00:39:19;101166.53;;;11.40;51.39
12913;BME280;6524;51.368;11.984;2023-02-16T00:44:26;101161.25;;;11.43;51.53
12913;BME280;6524;51.368;11.984;2023-02-16T00:49:28;101156.78;;;11.10;52.68
12913;BME280;6524;51.368;11.984;2023-02-16T00:54:29;101168.03;;;12.21;49.85
12913;BME280;6524;51.368;11.984;2023-02-16T00:59:29;101172.25;;;11.57;51.16
12913;BME280;6524;51.368;11.984;2023-02-16T05:02:52;101130.69;;;10.70;55.37
12913;BME280;6524;51.368;11.984;2023-02-16T05:07:53;101133.09;;;11.18;54.61
12913;BME280;6524;51.368;11.984;2023-02-16T05:12:53;101122.91;;;10.69;55.27
12913;BME280;6524;51.368;11.984;2023-02-16T05:18:12;101114.44;;;11.35;53.41
12913;BME280;6524;51.368;11.984;2023-02-16T05:23:13;101109.09;;;11.41;53.32
12913;BME280;6524;51.368;11.984;2023-02-16T05:28:13;101118.41;;;11.14;54.11
12913;BME280;6524;51.368;11.984;2023-02-16T05:33:14;101131.00;;;11.34;52.67
12913;BME280;6524;51.368;11.984;2023-02-16T05:38:14;101134.84;;;11.55;52.61
12913;BME280;6524;51.368;11.984;2023-02-16T05:43:14;101126.16;;;11.17;52.77
12913;BME280;6524;51.368;11.984;2023-02-16T05:48:15;101118.69;;;10.63;53.84
12913;BME280;6524;51.368;11.984;2023-02-16T05:53:15;101125.84;;;10.94;53.42
12913;BME280;6524;51.368;11.984;2023-02-16T05:58:16;101133.88;;;11.22;52.26
12913;BME280;6524;51.368;11.984;2023-02-16T06:03:16;101134.69;;;11.25;52.72
12913;BME280;6524;51.368;11.984;2023-02-16T06:08:16;101142.53;;;10.43;55.44
12913;BME280;6524;51.368;11.984;2023-02-16T06:13:18;101131.72;;;10.15;54.86
12913;BME280;6524;51.368;11.984;2023-02-16T06:18:18;101140.03;;;10.37;55.74
12913;BME280;6524;51.368;11.984;2023-02-16T06:23:19;101144.50;;;9.82;56.99
12913;BME280;6524;51.368;11.984;2023-02-16T06:28:19;101142.13;;;10.63;54.61
12913;BME280;6524;51.368;11.984;2023-02-16T06:33:20;101135.28;;;10.12;55.81
12913;BME280;6524;51.368;11.984;2023-02-16T06:38:20;101131.81;;;11.72;51.95
12913;BME280;6524;51.368;11.984;2023-02-16T06:43:20;101126.09;;;10.39;54.61
12913;BME280;6524;51.368;11.984;2023-02-16T06:48:21;101127.94;;;11.15;53.43
12913;BME280;6524;51.368;11.984;2023-02-16T06:53:21;101131.31;;;10.39;54.53
12913;BME280;6524;51.368;11.984;2023-02-16T06:58:21;101130.31;;;10.45;55.84
12913;BME280;6524;51.368;11.984;2023-02-16T07:03:22;101128.97;;;10.69;54.31
12913;BME280;6524;51.368;11.984;2023-02-16T07:08:22;101129.81;;;11.10;54.56
12913;BME280;6524;51.368;11.984;2023-02-16T07:13:22;101139.00;;;11.64;52.89
12913;BME280;6524;51.368;11.984;2023-02-16T07:18:23;101141.88;;;11.89;53.25
12913;BME280;6524;51.368;11.984;2023-02-16T07:23:23;101142.94;;;12.14;51.65
12913;BME280;6524;51.368;11.984;2023-02-16T07:28:24;101139.00;;;12.31;51.04
12913;BME280;6524;51.368;11.984;2023-02-16T07:33:24;101134.56;;;11.67;52.66
12913;BME280;6524;51.368;11.984;2023-02-16T07:38:25;101143.50;;;11.93;51.87
12913;BME280;6524;51.368;11.984;2023-02-16T07:43:25;101129.34;;;11.31;53.99
12913;BME280;6524;51.368;11.984;2023-02-16T07:48:25;101130.00;;;12.41;51.39
12913;BME280;6524;51.368;11.984;2023-02-16T07:53:26;101120.84;;;12.57;50.89
12913;BME280;6524;51.368;11.984;2023-02-16T07:58:26;101128.13;;;12.46;51.75
12913;BME280;6524;51.368;11.984;2023-02-16T08:03:27;101118.22;;;12.87;50.78
12913;BME280;6524;51.368;11.984;2023-02-16T08:08:27;101131.31;;;13.96;47.95
12913;BME280;6524;51.368;11.984;2023-02-16T08:13:27;101121.75;;;13.95;47.59
12913;BME280;6524;51.368;11.984;2023-02-16T08:18:29;101138.63;;;14.62;46.76
12913;BME280;6524;51.368;11.984;2023-02-16T08:23:29;101147.16;;;17.53;40.63
12913;BME280;6524;51.368;11.984;2023-02-16T08:28:30;101150.84;;;21.77;33.13
12913;BME280;6524;51.368;11.984;2023-02-16T08:33:32;101164.56;;;23.84;29.63
12913;BME280;6524;51.368;11.984;2023-02-16T08:38:32;101157.28;;;25.87;27.15
12913;BME280;6524;51.368;11.984;2023-02-16T08:43:34;101167.09;;;26.28;26.26
12913;BME280;6524;51.368;11.984;2023-02-16T08:48:35;101158.16;;;26.69;26.30
12913;BME280;6524;51.368;11.984;2023-02-16T08:53:35;101164.09;;;28.01;24.77
12913;BME280;6524;51.368;11.984;2023-02-16T08:58:36;101145.97;;;28.69;24.08
12913;BME280;6524;51.368;11.984;2023-02-16T09:03:37;101156.59;;;28.14;24.03
12913;BME280;6524;51.368;11.984;2023-02-16T09:08:40;101153.44;;;29.03;23.20
12913;BME280;6524;51.368;11.984;2023-02-16T09:13:41;101152.97;;;28.80;24.03
12913;BME280;6524;51.368;11.984;2023-02-16T09:18:42;101147.47;;;29.09;23.49
12913;BME280;6524;51.368;11.984;2023-02-16T09:23:46;101142.09;;;29.27;23.03
12913;BME280;6524;51.368;11.984;2023-02-16T09:28:48;101146.25;;;29.57;22.93
12913;BME280;6524;51.368;11.984;2023-02-16T09:33:48;101158.31;;;30.15;22.50
12913;BME280;6524;51.368;11.984;2023-02-16T09:38:49;101157.44;;;31.09;21.44
12913;BME280;6524;51.368;11.984;2023-02-16T09:43:58;101149.97;;;28.65;23.77
12913;BME280;6524;51.368;11.984;2023-02-16T09:49:01;101135.25;;;30.12;22.58
12913;BME280;6524;51.368;11.984;2023-02-16T09:59:41;101125.47;;;27.74;27.02
12913;BME280;6524;51.368;11.984;2023-02-16T10:10:10;101119.25;;;26.56;26.18
12913;BME280;6524;51.368;11.984;2023-02-16T10:15:25;101129.06;;;25.61;27.26
12913;BME280;6524;51.368;11.984;2023-02-16T10:20:29;101134.06;;;25.87;29.94
12913;BME280;6524;51.368;11.984;2023-02-16T10:31:01;101132.34;;;25.33;27.78
12913;BME280;6524;51.368;11.984;2023-02-16T10:41:36;101121.03;;;24.18;29.90
12913;BME280;6524;51.368;11.984;2023-02-16T10:46:44;101115.50;;;24.55;29.88
12913;BME280;6524;51.368;11.984;2023-02-16T10:51:48;101107.16;;;23.20;31.08
12913;BME280;6524;51.368;11.984;2023-02-16T11:01:59;101116.00;;;23.45;31.05
12913;BME280;6524;51.368;11.984;2023-02-16T11:12:25;101084.19;;;23.19;30.81
12913;BME280;6524;51.368;11.984;2023-02-16T11:17:26;101087.63;;;23.08;31.97
12913;BME280;6524;51.368;11.984;2023-02-16T11:22:36;101092.84;;;23.10;31.68
12913;BME280;6524;51.368;11.984;2023-02-16T11:27:50;101090.22;;;23.45;31.86
12913;BME280;6524;51.368;11.984;2023-02-16T11:32:51;101072.91;;;23.86;30.86
12913;BME280;6524;51.368;11.984;2023-02-16T11:37:52;101068.94;;;23.92;30.60
12913;BME280;6524;51.368;11.984;2023-02-16T11:42:56;101052.22;;;24.12;30.77
12913;BME280;6524;51.368;11.984;2023-02-16T11:48:11;101057.22;;;24.17;30.25
12913;BME280;6524;51.368;11.984;2023-02-16T11:53:21;101051.88;;;24.51;30.15
12913;BME280;6524;51.368;11.984;2023-02-16T11:58:24;101061.06;;;23.90;30.20
12913;BME280;6524;51.368;11.984;2023-02-16T12:41:56;101039.03;;;22.33;32.08
12913;BME280;6524;51.368;11.984;2023-02-16T12:47:03;101039.75;;;23.08;31.18
12913;BME280;6524;51.368;11.984;2023-02-16T12:57:32;101032.88;;;22.93;32.02
12913;BME280;6524;51.368;11.984;2023-02-16T13:02:41;101021.72;;;23.01;32.51
12913;BME280;6524;51.368;11.984;2023-02-16T13:07:45;101030.00;;;22.10;33.58
12913;BME280;6524;51.368;11.984;2023-02-16T13:12:54;101013.03;;;22.25;33.08
12913;BME280;6524;51.368;11.984;2023-02-16T13:17:57;101020.63;;;22.91;32.46
12913;BME280;6524;51.368;11.984;2023-02-16T13:28:50;101002.72;;;23.98;31.65
12913;BME280;6524;51.368;11.984;2023-02-16T13:44:39;100999.78;;;22.73;32.74
12913;BME280;6524;51.368;11.984;2023-02-16T13:49:42;100997.94;;;23.11;34.94
12913;BME280;6524;51.368;11.984;2023-02-16T13:54:47;101006.84;;;22.12;36.71
12913;BME280;6524;51.368;11.984;2023-02-16T13:59:57;101007.28;;;21.80;35.76
12913;BME280;6524;51.368;11.984;2023-02-16T14:05:01;101011.28;;;21.35;36.35
12913;BME280;6524;51.368;11.984;2023-02-16T14:10:03;101004.47;;;21.31;36.04
12913;BME280;6524;51.368;11.984;2023-02-16T14:15:16;101010.13;;;20.99;37.31
12913;BME280;6524;51.368;11.984;2023-02-16T14:30:29;101006.31;;;21.43;36.21
12913;BME280;6524;51.368;11.984;2023-02-16T14:35:33;101007.50;;;21.52;35.97
12913;BME280;6524;51.368;11.984;2023-02-16T14:51:31;100998.41;;;19.03;38.77
12913;BME280;6524;51.368;11.984;2023-02-16T14:56:40;100997.47;;;19.48;38.66
12913;BME280;6524;51.368;11.984;2023-02-16T15:01:44;101007.56;;;19.11;38.73
12913;BME280;6524;51.368;11.984;2023-02-16T15:06:46;100998.63;;;19.14;38.87
12913;BME280;6524;51.368;11.984;2023-02-16T15:11:58;100991.03;;;19.68;37.70
12913;BME280;6524;51.368;11.984;2023-02-16T15:17:44;100981.63;;;19.48;37.73
12913;BME280;6524;51.368;11.984;2023-02-16T15:22:54;100982.94;;;19.11;38.53
12913;BME280;6524;51.368;11.984;2023-02-16T15:27:58;100975.47;;;19.48;38.16
12913;BME280;6524;51.368;11.984;2023-02-16T15:33:02;100970.63;;;19.84;37.56
12913;BME280;6524;51.368;11.984;2023-02-16T15:38:08;100967.19;;;19.09;39.02
12913;BME280;6524;51.368;11.984;2023-02-16T15:43:20;100968.38;;;19.34;38.47
12913;BME280;6524;51.368;11.984;2023-02-16T15:48:25;100961.84;;;19.25;38.76
12913;BME280;6524;51.368;11.984;2023-02-16T15:53:35;100963.94;;;19.04;39.38
12913;BME280;6524;51.368;11.984;2023-02-16T15:58:36;100953.72;;;19.87;38.02
12913;BME280;6524;51.368;11.984;2023-02-16T16:03:40;100956.63;;;19.24;39.17
12913;BME280;6524;51.368;11.984;2023-02-16T16:08:45;100947.38;;;18.70;40.68
12913;BME280;6524;51.368;11.984;2023-02-16T16:13:46;100947.16;;;18.43;41.42
12913;BME280;6524;51.368;11.984;2023-02-16T16:18:48;100943.31;;;18.01;42.29
12913;BME280;6524;51.368;11.984;2023-02-16T16:28:57;100952.53;;;18.42;42.75
12913;BME280;6524;51.368;11.984;2023-02-16T16:34:03;100953.34;;;18.58;41.09
12913;BME280;6524;51.368;11.984;2023-02-16T16:44:33;100952.69;;;18.07;42.61
12913;BME280;6524;51.368;11.984;2023-02-16T16:49:34;100960.53;;;18.56;41.88
12913;BME280;6524;51.368;11.984;2023-02-16T16:54:35;100964.22;;;17.89;43.01
12913;BME280;6524;51.368;11.984;2023-02-16T16:59:35;100960.63;;;17.74;43.35
12913;BME280;6524;51.368;11.984;2023-02-16T17:04:36;100957.97;;;18.07;42.90
12913;BME280;6524;51.368;11.984;2023-02-16T17:09:36;100966.28;;;17.84;43.00
12913;BME280;6524;51.368;11.984;2023-02-16T17:14:36;100973.47;;;18.13;43.17
12913;BME280;6524;51.368;11.984;2023-02-16T17:19:38;100962.09;;;19.21;42.48
12913;BME280;6524;51.368;11.984;2023-02-16T17:24:38;100973.00;;;19.00;40.71
12913;BME280;6524;51.368;11.984;2023-02-16T17:29:38;100978.56;;;18.80;40.96
12913;BME280;6524;51.368;11.984;2023-02-16T17:34:41;100966.81;;;17.90;42.98
12913;BME280;6524;51.368;11.984;2023-02-16T17:39:43;100969.19;;;17.95;43.24
12913;BME280;6524;51.368;11.984;2023-02-16T17:44:43;100977.41;;;18.54;42.56
12913;BME280;6524;51.368;11.984;2023-02-16T17:49:44;100989.47;;;18.26;42.83
12913;BME280;6524;51.368;11.984;2023-02-16T17:54:44;100985.88;;;18.11;43.69
12913;BME280;6524;51.368;11.984;2023-02-16T17:59:45;100985.06;;;18.26;43.62
12913;BME280;6524;51.368;11.984;2023-02-16T18:04:45;100983.00;;;18.63;43.03
12913;BME280;6524;51.368;11.984;2023-02-16T18:09:47;100985.41;;;18.52;43.45
12913;BME280;6524;51.368;11.984;2023-02-16T18:14:48;100978.59;;;18.48;44.24
12913;BME280;6524;51.368;11.984;2023-02-16T18:19:48;100982.56;;;18.39;45.13
12913;BME280;6524;51.368;11.984;2023-02-16T18:24:49;100977.84;;;18.30;45.70
12913;BME280;6524;51.368;11.984;2023-02-16T18:29:49;100986.44;;;18.34;45.81
12913;BME280;6524;51.368;11.984;2023-02-16T18:34:50;100971.22;;;17.90;47.00
12913;BME280;6524;51.368;11.984;2023-02-16T18:39:51;100981.81;;;18.53;45.96
12913;BME280;6524;51.368;11.984;2023-02-16T18:44:51;100986.06;;;19.17;44.23
12913;BME280;6524;51.368;11.984;2023-02-16T18:49:51;100982.78;;;18.52;45.53
12913;BME280;6524;51.368;11.984;2023-02-16T18:54:52;100980.44;;;18.93;44.59
12913;BME280;6524;51.368;11.984;2023-02-16T18:59:52;100958.38;;;17.66;46.96
12913;BME280;6524;51.368;11.984;2023-02-16T19:04:53;100954.34;;;17.92;47.32
12913;BME280;6524;51.368;11.984;2023-02-16T19:09:53;100951.34;;;18.32;46.58
12913;BME280;6524;51.368;11.984;2023-02-16T19:14:53;100945.25;;;17.98;47.58
12913;BME280;6524;51.368;11.984;2023-02-16T19:19:54;100942.97;;;18.08;47.03
12913;BME280;6524;51.368;11.984;2023-02-16T19:24:55;100939.09;;;18.31;47.23
12913;BME280;6524;51.368;11.984;2023-02-16T19:29:55;100942.69;;;17.13;49.29
12913;BME280;6524;51.368;11.984;2023-02-16T19:34:56;100943.44;;;17.32;49.32
12913;BME280;6524;51.368;11.984;2023-02-16T19:39:56;100942.06;;;17.07;49.98
12913;BME280;6524;51.368;11.984;2023-02-16T19:44:56;100937.59;;;17.60;49.11
12913;BME280;6524;51.368;11.984;2023-02-16T19:49:57;100933.06;;;17.29;50.31
12913;BME280;6524;51.368;11.984;2023-02-16T19:54:57;100936.13;;;16.86;51.23
12913;BME280;6524;51.368;11.984;2023-02-16T19:59:57;100929.91;;;16.87;51.37
12913;BME280;6524;51.368;11.984;2023-02-16T20:04:58;100935.25;;;16.67;51.90
12913;BME280;6524;51.368;11.984;2023-02-16T20:09:58;100927.25;;;16.15;53.53
12913;BME280;6524;51.368;11.984;2023-02-16T20:14:58;100919.97;;;16.20;53.03
12913;BME280;6524;51.368;11.984;2023-02-16T20:19:59;100921.31;;;16.84;51.31
12913;BME280;6524;51.368;11.984;2023-02-16T20:24:59;100922.09;;;16.50;52.04
12913;BME280;6524;51.368;11.984;2023-02-16T20:30:03;100904.25;;;16.74;51.27
12913;BME280;6524;51.368;11.984;2023-02-16T20:35:05;100899.25;;;16.86;50.11
12913;BME280;6524;51.368;11.984;2023-02-16T20:40:06;100893.16;;;17.37;49.73
12913;BME280;6524;51.368;11.984;2023-02-16T20:45:07;100903.53;;;17.40;49.11
12913;BME280;6524;51.368;11.984;2023-02-16T20:50:08;100906.13;;;17.06;50.03
12913;BME280;6524;51.368;11.984;2023-02-16T20:55:09;100897.34;;;17.23;49.35
12913;BME280;6524;51.368;11.984;2023-02-16T21:00:14;100897.03;;;17.96;47.98
12913;BME280;6524;51.368;11.984;2023-02-16T21:05:16;100893.75;;;16.72;50.48
12913;BME280;6524;51.368;11.984;2023-02-16T21:10:17;100895.88;;;17.51;48.87
12913;BME280;6524;51.368;11.984;2023-02-16T21:15:17;100880.16;;;16.81;50.24
12913;BME280;6524;51.368;11.984;2023-02-16T21:20:18;100878.97;;;17.88;47.23
12913;BME280;6524;51.368;11.984;2023-02-16T21:25:18;100877.78;;;16.40;51.07
12913;BME280;6524;51.368;11.984;2023-02-16T21:30:18;100868.53;;;16.85;50.51
12913;BME280;6524;51.368;11.984;2023-02-16T21:35:19;100860.28;;;16.57;50.72
12913;BME280;6524;51.368;11.984;2023-02-16T21:40:19;100851.78;;;16.69;50.81
12913;BME280;6524;51.368;11.984;2023-02-16T21:45:38;100858.03;;;17.36;49.21
12913;BME280;6524;51.368;11.984;2023-02-16T21:50:40;100862.28;;;17.88;47.92
12913;BME280;6524;51.368;11.984;2023-02-16T21:55:41;100857.97;;;17.87;47.66
12913;BME280;6524;51.368;11.984;2023-02-16T22:01:00;100861.09;;;17.93;47.70
12913;BME280;6524;51.368;11.984;2023-02-16T22:06:05;100848.75;;;17.94;47.69
12913;BME280;6524;51.368;11.984;2023-02-16T22:11:11;100846.25;;;17.59;48.62
12913;BME280;6524;51.368;11.984;2023-02-16T22:16:16;100846.09;;;18.25;47.69
12913;BME280;6524;51.368;11.984;2023-02-16T22:21:17;100834.97;;;18.50;47.12
12913;BME280;6524;51.368;11.984;2023-02-16T22:26:20;100841.16;;;18.19;48.14
12913;BME280;6524;51.368;11.984;2023-02-16T22:31:23;100829.53;;;18.38;48.09
12913;BME280;6524;51.368;11.984;2023-02-16T22:36:24;100827.34;;;18.14;48.81
12913;BME280;6524;51.368;11.984;2023-02-16T22:41:25;100821.63;;;18.38;48.86
12913;BME280;6524;51.368;11.984;2023-02-16T22:46:27;100818.19;;;18.21;49.51
12913;BME280;6524;51.368;11.984;2023-02-16T22:51:29;100814.09;;;17.52;50.80
12913;BME280;6524;51.368;11.984;2023-02-16T22:56:30;100810.91;;;16.97;52.19
12913;BME280;6524;51.368;11.984;2023-02-16T23:01:31;100802.69;;;17.52;50.85
12913;BME280;6524;51.368;11.984;2023-02-16T23:06:34;100795.69;;;17.35;51.00
12913;BME280;6524;51.368;11.984;2023-02-16T23:11:35;100783.03;;;17.73;49.98
12913;BME280;6524;51.368;11.984;2023-02-16T23:16:35;100784.13;;;17.38;50.95
12913;BME280;6524;51.368;11.984;2023-02-16T23:21:35;100793.84;;;17.53;50.20
12913;BME280;6524;51.368;11.984;2023-02-16T23:26:36;100785.31;;;18.11;48.99
12913;BME280;6524;51.368;11.984;2023-02-16T23:31:38;100773.09;;;17.94;49.23
12913;BME280;6524;51.368;11.984;2023-02-16T23:36:39;100788.06;;;17.94;49.07
12913;BME280;6524;51.368;11.984;2023-02-16T23:41:41;100789.25;;;17.72;49.45
12913;BME280;6524;51.368;11.984;2023-02-16T23:46:41;100785.31;;;17.64;49.21
12913;BME280;6524;51.368;11.984;2023-02-16T23:51:42;100790.97;;;18.05;48.74
12913;BME280;6524;51.368;11.984;2023-02-16T23:56:42;100790.47;;;17.83;49.12
